createdAt,value
2022-08-23T00:01:25.500Z,22.84
2022-08-23T00:03:52.610Z,23.14
2022-08-23T00:06:19.127Z,22.98
2022-08-23T00:08:48.320Z,22.88
2022-08-23T00:11:16.205Z,22.98
2022-08-23T00:13:47.438Z,23.53
2022-08-23T00:16:15.761Z,23.41
2022-08-23T00:18:42.260Z,23.69
2022-08-23T00:21:15.817Z,23.78
2022-08-23T00:23:42.284Z,23.97
2022-08-23T00:26:09.708Z,23.82
2022-08-23T00:28:36.194Z,24.01
2022-08-23T00:31:03.616Z,24.10
2022-08-23T00:33:31.002Z,23.97
2022-08-23T00:35:57.477Z,23.88
2022-08-23T00:38:32.856Z,24.05
2022-08-23T00:41:01.099Z,24.01
2022-08-23T00:43:27.599Z,23.67
2022-08-23T00:45:54.102Z,23.73
2022-08-23T00:48:20.592Z,23.93
2022-08-23T00:50:47.073Z,24.01
2022-08-23T00:53:14.502Z,24.01
2022-08-23T00:55:40.991Z,23.53
2022-08-23T00:58:07.534Z,23.20
2022-08-23T01:00:34.025Z,22.66
2022-08-23T01:03:00.511Z,23.08
2022-08-23T01:05:29.163Z,23.20
2022-08-23T01:07:56.655Z,23.04
2022-08-23T01:10:23.168Z,23.05
2022-08-23T01:12:49.671Z,22.33
2022-08-23T01:15:17.078Z,22.19
2022-08-23T01:17:43.585Z,22.49
2022-08-23T01:20:10.329Z,23.12
2022-08-23T01:22:36.888Z,22.60
2022-08-23T01:25:08.152Z,21.50
2022-08-23T01:27:36.252Z,21.63
2022-08-23T01:30:02.734Z,21.50
2022-08-23T01:32:29.241Z,21.85
2022-08-23T01:34:55.765Z,22.89
2022-08-23T01:37:22.318Z,22.59
2022-08-23T01:39:48.940Z,22.03
2022-08-23T01:42:16.394Z,22.23
2022-08-23T01:44:42.880Z,23.00
2022-08-23T01:47:09.365Z,23.34
2022-08-23T01:49:35.844Z,23.64
2022-08-23T01:52:02.335Z,23.89
2022-08-23T01:54:28.834Z,24.07
2022-08-23T01:56:55.379Z,24.07
2022-08-23T01:59:21.847Z,24.13
2022-08-23T02:01:49.271Z,24.11
2022-08-23T02:04:16.711Z,23.99
2022-08-23T02:06:43.217Z,23.82
2022-08-23T02:09:16.097Z,23.97
2022-08-23T02:11:45.399Z,23.84
2022-08-23T02:14:11.897Z,23.59
2022-08-23T02:16:38.353Z,23.79
2022-08-23T02:19:04.854Z,23.92
2022-08-23T02:21:32.240Z,23.71
2022-08-23T02:23:58.781Z,23.64
2022-08-23T02:26:31.161Z,23.87
2022-08-23T02:28:58.888Z,24.02
2022-08-23T02:31:26.289Z,24.18
2022-08-23T02:33:54.377Z,24.24
2022-08-23T02:36:23.245Z,24.15
2022-08-23T02:38:49.744Z,24.13
2022-08-23T02:41:16.198Z,24.20
2022-08-23T02:43:43.592Z,24.26
2022-08-23T02:46:10.067Z,24.14
2022-08-23T02:48:36.539Z,24.19
2022-08-23T02:51:05.115Z,24.23
2022-08-23T02:53:32.519Z,24.29
2022-08-23T02:55:58.943Z,24.35
2022-08-23T02:58:26.333Z,24.31
2022-08-23T03:00:52.890Z,24.33
2022-08-23T03:03:20.233Z,24.32
2022-08-23T03:05:49.102Z,24.29
2022-08-23T03:08:15.588Z,24.02
2022-08-23T03:10:42.082Z,23.87
2022-08-23T03:13:08.635Z,23.95
2022-08-23T03:15:35.098Z,24.08
2022-08-23T03:18:01.729Z,23.94
2022-08-23T03:20:28.624Z,23.89
2022-08-23T03:22:55.146Z,24.09
2022-08-23T03:25:21.644Z,24.23
2022-08-23T03:27:48.126Z,23.89
2022-08-23T03:30:19.135Z,23.67
2022-08-23T03:32:48.868Z,23.87
2022-08-23T03:35:15.861Z,24.07
2022-08-23T03:37:42.351Z,23.88
2022-08-23T03:40:08.930Z,23.87
2022-08-23T03:42:36.367Z,24.10
2022-08-23T03:45:02.934Z,24.26
2022-08-23T03:47:29.470Z,24.26
2022-08-23T03:49:55.938Z,24.29
2022-08-23T03:52:22.424Z,24.27
2022-08-23T03:54:49.816Z,24.24
2022-08-23T03:57:17.264Z,24.15
2022-08-23T03:59:43.683Z,24.09
2022-08-23T04:02:10.197Z,24.14
2022-08-23T04:04:37.645Z,24.08
2022-08-23T04:07:05.040Z,24.11
2022-08-23T04:09:32.428Z,24.29
2022-08-23T04:11:59.803Z,24.22
2022-08-23T04:14:28.106Z,24.16
2022-08-23T04:16:55.814Z,24.27
2022-08-23T04:19:23.614Z,24.08
2022-08-23T04:21:50.087Z,23.92
2022-08-23T04:24:17.470Z,24.08
2022-08-23T04:26:44.855Z,24.08
2022-08-23T04:29:31.446Z,24.28
2022-08-23T04:32:01.941Z,24.37
2022-08-23T04:34:32.772Z,23.28
2022-08-23T04:36:59.281Z,23.17
2022-08-23T04:39:26.700Z,23.39
2022-08-23T04:41:54.210Z,23.34
2022-08-23T04:44:21.619Z,23.28
2022-08-23T04:46:49.038Z,23.42
2022-08-23T04:49:16.464Z,23.59
2022-08-23T04:51:43.876Z,23.62
2022-08-23T04:54:22.582Z,23.61
2022-08-23T04:56:51.824Z,23.82
2022-08-23T04:59:19.416Z,23.91
2022-08-23T05:01:45.916Z,23.65
2022-08-23T05:04:13.325Z,23.44
2022-08-23T05:06:40.730Z,23.39
2022-08-23T05:09:07.210Z,23.53
2022-08-23T05:11:34.634Z,23.18
2022-08-23T05:14:02.043Z,23.23
2022-08-23T05:16:29.469Z,22.78
2022-08-23T05:18:56.884Z,23.18
2022-08-23T05:21:24.299Z,23.76
2022-08-23T05:23:54.944Z,23.71
2022-08-23T05:26:22.527Z,23.50
2022-08-23T05:28:50.092Z,23.33
2022-08-23T05:31:17.555Z,23.51
2022-08-23T05:33:44.031Z,23.63
2022-08-23T05:36:11.472Z,23.64
2022-08-23T05:38:38.883Z,23.47
2022-08-23T05:41:07.076Z,23.45
2022-08-23T05:43:34.587Z,23.41
2022-08-23T05:46:01.628Z,23.29
2022-08-23T05:48:30.147Z,23.15
2022-08-23T05:50:57.548Z,23.27
2022-08-23T05:53:24.100Z,23.35
2022-08-23T05:55:51.489Z,23.50
2022-08-23T05:58:19.657Z,23.55
2022-08-23T06:00:46.238Z,23.59
2022-08-23T06:03:13.646Z,23.57
2022-08-23T06:05:41.044Z,23.64
2022-08-23T06:08:08.473Z,23.65
2022-08-23T06:10:36.081Z,23.68
2022-08-23T06:13:04.917Z,23.64
2022-08-23T06:15:32.306Z,23.60
2022-08-23T06:17:58.878Z,23.59
2022-08-23T06:20:26.502Z,23.78
2022-08-23T06:22:53.905Z,23.90
2022-08-23T06:25:21.295Z,23.85
2022-08-23T06:27:48.699Z,23.75
2022-08-23T06:30:16.096Z,23.96
2022-08-23T06:32:42.647Z,24.08
2022-08-23T06:35:33.124Z,24.16
2022-08-23T06:37:58.090Z,24.19
2022-08-23T06:40:25.652Z,24.21
2022-08-23T06:42:53.154Z,24.22
2022-08-23T06:45:20.536Z,24.28
2022-08-23T06:48:01.206Z,24.27
2022-08-23T06:50:32.477Z,24.29
2022-08-23T06:53:00.342Z,24.35
2022-08-23T06:55:27.068Z,24.38
2022-08-23T06:57:54.803Z,24.42
2022-08-23T07:00:22.788Z,24.50
2022-08-23T07:02:50.077Z,24.55
2022-08-23T07:05:17.124Z,24.59
2022-08-23T07:07:44.834Z,24.63
2022-08-23T07:10:12.559Z,24.65
2022-08-23T07:12:39.947Z,24.53
2022-08-23T07:15:06.442Z,24.43
2022-08-23T07:17:32.908Z,24.26
2022-08-23T07:20:00.306Z,24.24
2022-08-23T07:22:26.774Z,24.63
2022-08-23T07:24:54.242Z,25.07
2022-08-23T07:27:20.743Z,25.23
2022-08-23T07:29:47.229Z,25.72
2022-08-23T07:32:14.668Z,25.72
2022-08-23T07:34:41.203Z,25.89
2022-08-23T07:37:11.205Z,25.65
2022-08-23T07:39:42.089Z,25.91
2022-08-23T07:42:23.766Z,25.87
2022-08-23T07:44:51.674Z,26.22
2022-08-23T07:47:19.259Z,26.11
2022-08-23T07:49:45.733Z,26.30
2022-08-23T07:52:12.306Z,26.51
2022-08-23T07:54:38.852Z,26.45
2022-08-23T07:57:08.047Z,26.49
2022-08-23T07:59:34.804Z,26.28
2022-08-23T08:02:01.400Z,26.24
2022-08-23T08:04:28.885Z,26.31
2022-08-23T08:07:17.709Z,26.10
2022-08-23T08:09:42.748Z,26.01
2022-08-23T08:12:10.143Z,26.03
2022-08-23T08:14:37.321Z,26.07
2022-08-23T08:17:03.932Z,26.03
2022-08-23T08:19:31.313Z,26.16
2022-08-23T08:21:57.797Z,25.99
2022-08-23T08:24:24.296Z,26.52
2022-08-23T08:26:51.679Z,26.50
2022-08-23T08:29:19.091Z,26.65
2022-08-23T08:31:46.493Z,25.89
2022-08-23T08:34:13.039Z,25.22
2022-08-23T08:36:40.545Z,25.18
2022-08-23T08:39:07.184Z,25.11
2022-08-23T08:41:37.038Z,25.15
2022-08-23T08:44:03.526Z,25.07
2022-08-23T08:46:30.058Z,25.03
2022-08-23T08:48:57.508Z,25.09
2022-08-23T08:51:23.991Z,25.14
2022-08-23T08:53:51.375Z,25.14
2022-08-23T08:56:18.709Z,25.11
2022-08-23T08:58:45.492Z,25.15
2022-08-23T09:01:12.020Z,25.16
2022-08-23T09:03:38.551Z,25.20
2022-08-23T09:06:09.505Z,25.18
2022-08-23T09:08:39.848Z,25.12
2022-08-23T09:11:07.221Z,25.13
2022-08-23T09:13:33.712Z,25.15
2022-08-23T09:16:00.216Z,25.17
2022-08-23T09:18:26.695Z,25.17
2022-08-23T09:20:53.152Z,25.16
2022-08-23T09:23:19.679Z,25.18
2022-08-23T09:25:46.955Z,25.15
2022-08-23T09:28:14.248Z,25.17
2022-08-23T09:30:40.699Z,25.18
2022-08-23T09:33:08.084Z,25.18
2022-08-23T09:35:35.490Z,25.17
2022-08-23T09:38:03.054Z,25.18
2022-08-23T09:40:31.364Z,25.17
2022-08-23T09:42:58.731Z,25.18
2022-08-23T09:45:26.531Z,25.20
2022-08-23T09:47:53.112Z,25.21
2022-08-23T09:50:20.467Z,25.20
2022-08-23T09:52:47.829Z,25.20
2022-08-23T09:55:14.296Z,25.20
2022-08-23T09:57:41.663Z,25.23
2022-08-23T10:00:09.051Z,25.21
2022-08-23T10:02:35.540Z,25.22
2022-08-23T10:05:03.095Z,25.24
2022-08-23T10:07:30.536Z,25.25
2022-08-23T10:09:57.918Z,25.26
2022-08-23T10:12:25.272Z,25.27
2022-08-23T10:14:52.650Z,25.29
2022-08-23T10:17:19.114Z,25.31
2022-08-23T10:19:47.810Z,25.31
2022-08-23T10:22:14.380Z,25.30
2022-08-23T10:24:40.827Z,25.29
2022-08-23T10:27:07.274Z,25.29
2022-08-23T10:29:34.506Z,25.29
2022-08-23T10:32:01.899Z,25.30
2022-08-23T10:34:29.964Z,25.30
2022-08-23T10:36:56.559Z,25.31
2022-08-23T10:39:23.888Z,25.32
2022-08-23T10:41:51.249Z,25.34
2022-08-23T10:44:17.729Z,25.36
2022-08-23T10:46:44.261Z,25.38
2022-08-23T10:49:11.563Z,25.37
2022-08-23T10:51:40.375Z,25.36
2022-08-23T10:54:07.120Z,25.36
2022-08-23T10:56:34.412Z,25.38
2022-08-23T10:59:00.824Z,25.39
2022-08-23T11:01:30.523Z,25.40
2022-08-23T11:03:57.917Z,25.40
2022-08-23T11:06:24.377Z,25.40
2022-08-23T11:08:51.626Z,25.39
2022-08-23T11:11:18.045Z,25.39
2022-08-23T11:13:44.451Z,25.40
2022-08-23T11:16:10.929Z,25.41
2022-08-23T11:18:37.340Z,25.41
2022-08-23T11:21:03.788Z,25.42
2022-08-23T11:23:30.187Z,25.43
2022-08-23T11:25:58.526Z,25.43
2022-08-23T11:28:24.953Z,25.43
2022-08-23T11:31:00.285Z,25.43
2022-08-23T11:33:26.829Z,25.46
2022-08-23T11:35:53.309Z,25.45
2022-08-23T11:38:22.574Z,25.46
2022-08-23T11:40:51.907Z,25.46
2022-08-23T11:43:21.093Z,25.47
2022-08-23T11:45:47.646Z,25.48
2022-08-23T11:48:14.210Z,25.49
2022-08-23T11:50:40.593Z,25.49
2022-08-23T11:53:07.017Z,25.49
2022-08-23T11:55:33.525Z,25.48
2022-08-23T11:58:00.058Z,25.50
2022-08-23T12:00:29.122Z,25.50
2022-08-23T12:02:56.195Z,25.52
2022-08-23T12:05:22.678Z,25.52
2022-08-23T12:07:50.940Z,25.54
2022-08-23T12:10:20.889Z,25.52
2022-08-23T12:12:47.537Z,25.53
2022-08-23T12:15:14.037Z,25.54
2022-08-23T12:17:42.311Z,25.54
2022-08-23T12:20:15.571Z,25.54
2022-08-23T12:22:43.883Z,25.54
2022-08-23T12:25:14.528Z,25.54
2022-08-23T12:27:41.012Z,25.54
2022-08-23T12:30:07.394Z,25.55
2022-08-23T12:32:34.656Z,25.55
2022-08-23T12:35:01.090Z,25.55
2022-08-23T12:37:29.402Z,25.55
2022-08-23T12:39:57.774Z,25.56
2022-08-23T12:42:24.232Z,25.56
2022-08-23T12:44:50.645Z,25.56
2022-08-23T12:47:17.102Z,25.55
2022-08-23T12:49:47.014Z,25.56
2022-08-23T12:52:13.482Z,25.57
2022-08-23T12:54:39.929Z,25.57
2022-08-23T12:57:08.255Z,25.58
2022-08-23T12:59:34.748Z,25.57
2022-08-23T13:02:01.265Z,25.58
2022-08-23T13:04:27.672Z,25.57
2022-08-23T13:06:54.098Z,25.58
2022-08-23T13:09:20.600Z,25.58
2022-08-23T13:11:50.520Z,25.58
2022-08-23T13:14:16.990Z,25.58
2022-08-23T13:16:43.421Z,25.59
2022-08-23T13:19:09.889Z,25.59
2022-08-23T13:21:39.859Z,25.58
2022-08-23T13:24:06.697Z,25.58
2022-08-23T13:26:35.014Z,25.58
2022-08-23T13:29:02.246Z,25.58
2022-08-23T13:31:28.744Z,25.59
2022-08-23T13:33:55.119Z,25.59
2022-08-23T13:36:23.415Z,25.63
2022-08-23T13:38:49.984Z,25.67
2022-08-23T13:41:17.281Z,25.68
2022-08-23T13:43:44.513Z,25.69
2022-08-23T13:46:11.832Z,25.71
2022-08-23T13:48:39.118Z,25.70
2022-08-23T13:51:07.513Z,25.72
2022-08-23T13:53:40.981Z,25.74
2022-08-23T13:56:08.233Z,25.74
2022-08-23T13:58:35.468Z,25.75
2022-08-23T14:01:02.749Z,25.74
2022-08-23T14:03:29.179Z,25.75
2022-08-23T14:05:55.549Z,25.76
2022-08-23T14:08:22.823Z,25.77
2022-08-23T14:10:49.194Z,25.77
2022-08-23T14:13:16.407Z,25.78
2022-08-23T14:16:32.182Z,25.77
2022-08-23T14:18:29.183Z,25.74
2022-08-23T14:20:55.547Z,25.74
2022-08-23T14:23:21.926Z,25.78
2022-08-23T14:25:48.344Z,25.80
2022-08-23T14:28:15.558Z,25.78
2022-08-23T14:30:41.950Z,25.82
2022-08-23T14:33:09.211Z,25.81
2022-08-23T14:35:35.592Z,25.83
2022-08-23T14:38:04.380Z,25.82
2022-08-23T14:40:31.539Z,25.83
2022-08-23T14:42:57.994Z,25.84
2022-08-23T14:45:25.246Z,25.84
2022-08-23T14:47:51.615Z,25.90
2022-08-23T14:50:18.878Z,26.26
2022-08-23T14:52:45.761Z,26.71
2022-08-23T14:55:13.061Z,26.95
2022-08-23T14:57:40.281Z,27.08
2022-08-23T15:00:06.674Z,27.03
2022-08-23T15:02:33.073Z,27.03
2022-08-23T15:05:00.419Z,26.86
2022-08-23T15:07:26.815Z,27.03
2022-08-23T15:09:53.186Z,27.11
2022-08-23T15:15:06.807Z,26.59
2022-08-23T15:17:33.217Z,26.48
2022-08-23T15:19:59.571Z,26.40
2022-08-23T15:22:26.125Z,26.47
2022-08-23T15:24:52.582Z,26.88
2022-08-23T15:27:18.935Z,26.98
2022-08-23T15:29:46.154Z,26.83
2022-08-23T15:32:12.902Z,26.89
2022-08-23T15:34:40.187Z,27.19
2022-08-23T15:37:13.088Z,27.14
2022-08-23T15:39:40.467Z,27.24
2022-08-23T15:42:06.860Z,27.28
2022-08-23T15:44:33.250Z,27.00
2022-08-23T15:46:59.624Z,27.02
2022-08-23T15:49:26.862Z,27.43
2022-08-23T15:51:53.271Z,27.43
2022-08-23T15:54:19.618Z,27.61
2022-08-23T15:56:46.843Z,27.44
2022-08-23T15:59:13.206Z,27.40
2022-08-23T16:01:39.670Z,27.28
2022-08-23T16:04:06.112Z,27.08
2022-08-23T16:06:36.357Z,27.29
2022-08-23T16:09:03.160Z,27.26
2022-08-23T16:11:29.533Z,27.61
2022-08-23T16:13:55.942Z,27.42
2022-08-23T16:16:22.975Z,27.55
2022-08-23T16:18:50.315Z,27.44
2022-08-23T16:21:17.953Z,27.45
2022-08-23T16:23:45.194Z,27.75
2022-08-23T16:26:11.595Z,27.43
2022-08-23T16:28:41.553Z,27.45
2022-08-23T16:31:07.988Z,27.61
2022-08-23T16:33:34.596Z,27.70
2022-08-23T16:36:01.094Z,27.46
2022-08-23T16:38:29.412Z,27.74
2022-08-23T16:40:59.362Z,27.54
2022-08-23T16:43:27.630Z,27.40
2022-08-23T16:45:54.195Z,27.78
2022-08-23T16:48:21.478Z,27.54
2022-08-23T16:50:47.964Z,27.78
2022-08-23T16:53:14.396Z,27.52
2022-08-23T16:55:41.654Z,26.38
2022-08-23T16:58:08.125Z,25.94
2022-08-23T17:00:35.466Z,25.83
2022-08-23T17:03:02.190Z,25.75
2022-08-23T17:05:29.719Z,25.64
2022-08-23T17:07:56.209Z,25.61
2022-08-23T17:10:23.955Z,25.66
2022-08-23T17:12:51.537Z,25.57
2022-08-23T17:15:20.662Z,25.59
2022-08-23T17:17:47.269Z,25.48
2022-08-23T17:20:14.799Z,25.40
2022-08-23T17:22:42.228Z,25.41
2022-08-23T17:25:08.943Z,25.52
2022-08-23T17:27:36.308Z,25.51
2022-08-23T17:30:03.741Z,25.54
2022-08-23T17:32:30.207Z,25.44
2022-08-23T17:34:56.660Z,25.55
2022-08-23T17:37:24.055Z,25.60
2022-08-23T17:39:50.653Z,25.63
2022-08-23T17:42:20.719Z,25.69
2022-08-23T17:44:48.086Z,25.62
2022-08-23T17:47:15.489Z,25.56
2022-08-23T17:49:41.975Z,25.39
2022-08-23T17:52:08.628Z,25.37
2022-08-23T17:54:36.022Z,25.38
2022-08-23T17:57:04.937Z,25.52
2022-08-23T17:59:32.769Z,25.50
2022-08-23T18:01:59.209Z,25.46
2022-08-23T18:04:26.591Z,25.43
2022-08-23T18:06:53.039Z,25.40
2022-08-23T18:09:20.389Z,25.31
2022-08-23T18:11:47.769Z,25.37
2022-08-23T18:14:15.150Z,25.45
2022-08-23T18:16:41.619Z,25.30
2022-08-23T18:19:13.257Z,25.29
2022-08-23T18:21:39.895Z,25.22
2022-08-23T18:24:07.220Z,25.31
2022-08-23T18:26:33.700Z,25.32
2022-08-23T18:29:00.145Z,25.27
2022-08-23T18:31:27.496Z,25.15
2022-08-23T18:33:59.745Z,25.19
2022-08-23T18:36:27.771Z,25.01
2022-08-23T18:38:54.479Z,25.04
2022-08-23T18:41:21.836Z,25.00
2022-08-23T18:43:48.302Z,25.04
2022-08-23T18:46:14.858Z,24.97
2022-08-23T18:48:42.241Z,24.90
2022-08-23T18:51:18.269Z,24.76
2022-08-23T18:53:44.736Z,24.82
2022-08-23T18:56:11.199Z,24.68
2022-08-23T18:58:37.625Z,24.82
2022-08-23T19:01:06.519Z,24.71
2022-08-23T19:03:34.116Z,24.94
2022-08-23T19:06:00.531Z,24.87
2022-08-23T19:08:27.018Z,24.65
2022-08-23T19:10:54.364Z,24.75
2022-08-23T19:13:20.831Z,24.84
2022-08-23T19:15:47.282Z,24.68
2022-08-23T19:18:14.679Z,24.70
2022-08-23T19:20:41.968Z,24.64
2022-08-23T19:23:09.246Z,24.79
2022-08-23T19:25:35.697Z,24.70
2022-08-23T19:28:02.147Z,24.72
2022-08-23T19:30:29.475Z,24.63
2022-08-23T19:32:56.049Z,24.79
2022-08-23T19:35:22.527Z,24.73
2022-08-23T19:37:48.946Z,24.57
2022-08-23T19:40:16.339Z,24.74
2022-08-23T19:42:43.666Z,24.67
2022-08-23T19:45:10.178Z,24.61
2022-08-23T19:47:37.503Z,24.46
2022-08-23T19:50:03.949Z,24.48
2022-08-23T19:52:32.172Z,24.54
2022-08-23T19:55:05.848Z,24.52
2022-08-23T19:57:34.980Z,24.31
2022-08-23T20:00:02.350Z,24.45
2022-08-23T20:02:29.657Z,24.51
2022-08-23T20:04:57.028Z,24.45
2022-08-23T20:07:24.340Z,24.30
2022-08-23T20:09:51.076Z,24.56
2022-08-23T20:12:17.598Z,24.61
2022-08-23T20:14:44.053Z,24.65
2022-08-23T20:17:10.472Z,24.66
2022-08-23T20:19:37.733Z,24.42
2022-08-23T20:22:04.190Z,24.67
2022-08-23T20:24:50.893Z,24.46
2022-08-23T20:27:28.417Z,24.63
2022-08-23T20:29:57.470Z,24.47
2022-08-23T20:32:24.726Z,24.76
2022-08-23T20:34:51.295Z,24.83
2022-08-23T20:37:17.740Z,24.96
2022-08-23T20:39:45.097Z,25.31
2022-08-23T20:42:12.426Z,25.31
2022-08-23T20:44:38.859Z,25.49
2022-08-23T20:47:06.333Z,25.18
2022-08-23T20:49:33.705Z,25.64
2022-08-23T20:52:00.165Z,25.69
2022-08-23T20:54:26.638Z,25.60
2022-08-23T20:56:53.070Z,24.97
2022-08-23T20:59:19.822Z,24.67
2022-08-23T21:01:46.397Z,24.57
2022-08-23T21:04:13.713Z,24.77
2022-08-23T21:06:40.966Z,24.71
2022-08-23T21:09:12.596Z,24.63
2022-08-23T21:11:39.012Z,24.85
2022-08-23T21:14:06.430Z,24.70
2022-08-23T21:16:33.775Z,24.54
2022-08-23T21:19:01.048Z,24.47
2022-08-23T21:21:27.497Z,24.32
2022-08-23T21:23:53.935Z,24.34
2022-08-23T21:26:21.256Z,24.43
2022-08-23T21:28:48.531Z,24.39
2022-08-23T21:31:15.086Z,24.33
2022-08-23T21:33:42.402Z,24.37
2022-08-23T21:36:09.651Z,24.36
2022-08-23T21:38:36.987Z,24.18
2022-08-23T21:41:03.688Z,24.24
2022-08-23T21:43:30.113Z,24.15
2022-08-23T21:45:57.477Z,24.06
2022-08-23T21:48:23.973Z,23.92
2022-08-23T21:50:50.433Z,23.72
2022-08-23T21:53:17.794Z,23.80
2022-08-23T21:55:45.053Z,24.17
2022-08-23T21:58:14.571Z,24.25
2022-08-23T22:00:41.902Z,24.23
2022-08-23T22:03:09.310Z,24.26
2022-08-23T22:05:36.638Z,24.18
2022-08-23T22:08:04.009Z,24.22
2022-08-23T22:10:31.380Z,24.25
2022-08-23T22:12:57.868Z,24.23
2022-08-23T22:15:24.346Z,24.15
2022-08-23T22:17:50.806Z,24.19
2022-08-23T22:20:18.162Z,24.22
2022-08-23T22:22:45.322Z,24.09
2022-08-23T22:25:11.824Z,23.98
2022-08-23T22:27:40.147Z,24.11
2022-08-23T22:30:06.614Z,24.04
2022-08-23T22:32:33.979Z,24.09
2022-08-23T22:35:01.228Z,23.87
2022-08-23T22:37:28.566Z,24.06
2022-08-23T22:39:55.911Z,23.91
2022-08-23T22:42:22.403Z,24.02
2022-08-23T22:44:48.911Z,24.07
2022-08-23T22:47:15.409Z,23.87
2022-08-23T22:49:41.910Z,23.79
2022-08-23T22:52:08.376Z,23.57
2022-08-23T22:54:34.847Z,23.18
2022-08-23T22:57:01.304Z,23.09
2022-08-23T22:59:33.192Z,23.36
2022-08-23T23:02:00.482Z,23.61
2022-08-23T23:04:29.988Z,23.50
2022-08-23T23:06:58.346Z,23.07
2022-08-23T23:09:25.690Z,23.48
2022-08-23T23:11:52.136Z,23.79
2022-08-23T23:14:19.424Z,23.81
2022-08-23T23:16:45.934Z,23.69
2022-08-23T23:19:13.231Z,23.59
2022-08-23T23:21:39.709Z,23.60
2022-08-23T23:24:06.161Z,23.79
2022-08-23T23:26:33.439Z,23.78
2022-08-23T23:29:00.757Z,23.84
2022-08-23T23:31:28.038Z,23.86
2022-08-23T23:33:55.306Z,23.73
2022-08-23T23:36:21.746Z,23.64
2022-08-23T23:38:48.200Z,23.74
2022-08-23T23:41:15.557Z,23.75
2022-08-23T23:43:42.852Z,23.42
2022-08-23T23:46:10.176Z,23.18
2022-08-23T23:48:37.580Z,23.23
2022-08-23T23:51:04.872Z,23.27
2022-08-23T23:53:32.130Z,23.44
2022-08-23T23:55:58.649Z,23.53
2022-08-23T23:58:26.962Z,23.63
